createdAt,value
2023-03-29T00:02:30.478Z,4.78
2023-03-29T00:05:03.806Z,5.22
2023-03-29T00:07:33.401Z,5.85
2023-03-29T00:10:01.267Z,6.90
2023-03-29T00:12:28.289Z,5.22
2023-03-29T00:14:54.915Z,6.78
2023-03-29T00:17:21.447Z,5.32
2023-03-29T00:19:48.388Z,7.22
2023-03-29T00:22:15.423Z,3.97
2023-03-29T00:24:41.965Z,10.40
2023-03-29T00:27:08.409Z,4.43
2023-03-29T00:29:34.902Z,3.53
2023-03-29T00:32:01.406Z,5.30
2023-03-29T00:34:31.158Z,4.07
2023-03-29T00:36:58.467Z,7.35
2023-03-29T00:39:26.363Z,4.82
2023-03-29T00:41:52.989Z,6.13
2023-03-29T00:44:56.957Z,6.65
2023-03-29T00:47:34.293Z,12.35
2023-03-29T00:50:25.734Z,5.38
2023-03-29T00:52:57.354Z,4.90
2023-03-29T00:55:25.191Z,5.95
2023-03-29T00:57:53.621Z,6.20
2023-03-29T01:00:22.948Z,4.68
2023-03-29T01:02:54.377Z,4.00
2023-03-29T01:05:26.098Z,4.13
2023-03-29T01:08:02.943Z,3.85
2023-03-29T01:10:34.809Z,4.07
2023-03-29T01:13:06.920Z,4.57
2023-03-29T01:15:33.681Z,7.20
2023-03-29T01:18:01.942Z,3.85
2023-03-29T01:21:14.711Z,5.55
2023-03-29T01:23:47.308Z,3.63
2023-03-29T01:26:46.677Z,7.13
2023-03-29T01:29:17.680Z,5.70
2023-03-29T01:31:58.975Z,4.53
2023-03-29T01:34:43.519Z,4.68
2023-03-29T01:37:32.340Z,6.03
2023-03-29T01:39:58.916Z,5.40
2023-03-29T01:42:35.691Z,16.35
2023-03-29T01:45:25.145Z,5.10
2023-03-29T01:48:13.008Z,5.10
2023-03-29T01:50:54.217Z,4.70
2023-03-29T01:53:27.247Z,6.63
2023-03-29T01:55:56.341Z,4.32
2023-03-29T01:58:28.915Z,6.03
2023-03-29T02:00:55.763Z,7.40
2023-03-29T02:03:25.187Z,4.70
2023-03-29T02:05:55.273Z,4.25
2023-03-29T02:08:22.382Z,5.33
2023-03-29T02:10:51.719Z,6.47
2023-03-29T02:13:19.347Z,7.90
2023-03-29T02:15:48.435Z,5.82
2023-03-29T02:18:17.652Z,5.03
2023-03-29T02:20:47.459Z,4.53
2023-03-29T02:23:36.241Z,8.23
2023-03-29T02:26:03.943Z,5.47
2023-03-29T02:28:31.095Z,4.10
2023-03-29T02:31:05.848Z,4.03
2023-03-29T02:33:59.131Z,7.20
2023-03-29T02:36:41.462Z,6.60
2023-03-29T02:39:09.754Z,4.00
2023-03-29T02:41:38.091Z,6.65
2023-03-29T02:44:11.990Z,8.38
2023-03-29T02:46:38.478Z,12.53
2023-03-29T02:49:05.224Z,9.00
2023-03-29T02:51:33.341Z,6.00
2023-03-29T02:54:03.440Z,8.60
2023-03-29T02:56:30.444Z,8.70
2023-03-29T02:58:56.968Z,7.72
2023-03-29T03:01:23.789Z,4.67
2023-03-29T03:03:51.923Z,7.60
2023-03-29T03:06:18.912Z,4.33
2023-03-29T03:08:45.642Z,5.43
2023-03-29T03:11:12.158Z,5.60
2023-03-29T03:13:39.284Z,5.70
2023-03-29T03:16:07.899Z,9.03
2023-03-29T03:18:34.718Z,6.50
2023-03-29T03:21:02.907Z,5.63
2023-03-29T03:23:30.362Z,6.93
2023-03-29T03:25:57.377Z,12.17
2023-03-29T03:28:24.603Z,4.87
2023-03-29T03:30:51.289Z,5.90
2023-03-29T03:33:37.356Z,5.03
2023-03-29T03:36:36.261Z,4.30
2023-03-29T03:39:05.746Z,7.53
2023-03-29T03:41:32.653Z,7.57
2023-03-29T03:43:59.810Z,6.40
2023-03-29T03:46:28.352Z,4.30
2023-03-29T03:48:56.098Z,4.40
2023-03-29T03:51:28.906Z,3.27
2023-03-29T03:53:55.777Z,4.73
2023-03-29T03:56:31.557Z,4.97
2023-03-29T03:59:04.855Z,6.50
2023-03-29T04:01:54.161Z,4.57
2023-03-29T04:04:23.391Z,4.70
2023-03-29T04:07:06.677Z,4.95
2023-03-29T04:09:38.914Z,6.27
2023-03-29T04:12:19.666Z,5.53
2023-03-29T04:14:47.416Z,6.37
2023-03-29T04:17:18.760Z,6.17
2023-03-29T04:20:12.685Z,5.70
2023-03-29T04:22:41.090Z,6.80
2023-03-29T04:25:08.272Z,5.10
2023-03-29T04:27:40.866Z,4.23
2023-03-29T04:30:22.049Z,5.03
2023-03-29T04:33:18.506Z,3.87
2023-03-29T04:35:50.286Z,5.00
2023-03-29T04:38:23.201Z,4.70
2023-03-29T04:40:51.609Z,4.80
2023-03-29T04:43:47.725Z,5.20
2023-03-29T04:46:25.368Z,4.80
2023-03-29T04:49:04.136Z,4.43
2023-03-29T04:51:35.041Z,5.13
2023-03-29T04:54:02.279Z,4.43
2023-03-29T04:56:30.325Z,7.63
2023-03-29T04:59:17.109Z,5.77
2023-03-29T05:01:44.004Z,3.63
2023-03-29T05:04:12.720Z,5.20
2023-03-29T05:06:49.053Z,7.40
2023-03-29T05:09:17.054Z,7.17
2023-03-29T05:11:51.680Z,8.33
2023-03-29T05:14:20.136Z,6.40
2023-03-29T05:16:46.692Z,6.40
2023-03-29T05:19:13.388Z,3.90
2023-03-29T05:21:45.649Z,4.53
2023-03-29T05:24:17.295Z,10.07
2023-03-29T05:26:58.531Z,6.47
2023-03-29T05:29:27.744Z,6.13
2023-03-29T05:32:07.019Z,5.87
2023-03-29T05:34:33.878Z,5.77
2023-03-29T05:37:02.254Z,8.20
2023-03-29T05:39:38.072Z,5.97
2023-03-29T05:42:05.908Z,6.97
2023-03-29T05:44:42.464Z,5.37
2023-03-29T05:47:16.434Z,8.40
2023-03-29T05:49:43.355Z,8.35
2023-03-29T05:52:14.469Z,5.80
2023-03-29T05:54:42.106Z,9.57
2023-03-29T05:57:09.666Z,6.67
2023-03-29T05:59:36.963Z,5.87
2023-03-29T06:02:04.881Z,10.87
2023-03-29T06:04:33.415Z,5.60
2023-03-29T06:07:18.502Z,5.07
2023-03-29T06:10:01.604Z,7.77
2023-03-29T06:12:28.207Z,8.27
2023-03-29T06:15:04.794Z,5.45
2023-03-29T06:17:40.412Z,6.73
2023-03-29T06:20:12.724Z,4.43
2023-03-29T06:22:43.035Z,5.80
2023-03-29T06:25:12.271Z,6.50
2023-03-29T06:27:39.482Z,6.95
2023-03-29T06:30:07.094Z,7.03
2023-03-29T06:32:34.986Z,6.47
2023-03-29T06:35:21.849Z,5.93
2023-03-29T06:37:55.958Z,6.93
2023-03-29T06:40:31.409Z,6.20
2023-03-29T06:42:59.354Z,6.93
2023-03-29T06:45:44.796Z,5.83
2023-03-29T06:48:21.623Z,4.37
2023-03-29T06:50:48.557Z,8.87
2023-03-29T06:53:17.013Z,8.10
2023-03-29T06:55:49.942Z,7.33
2023-03-29T06:58:31.865Z,9.13
2023-03-29T07:01:05.625Z,8.23
2023-03-29T07:03:46.648Z,11.67
2023-03-29T07:06:14.933Z,6.65
2023-03-29T07:08:45.033Z,6.50
2023-03-29T07:11:20.356Z,6.47
2023-03-29T07:13:58.137Z,5.67
2023-03-29T07:16:25.875Z,6.63
2023-03-29T07:19:13.404Z,6.93
2023-03-29T07:21:49.056Z,7.10
2023-03-29T07:24:16.783Z,5.33
2023-03-29T07:26:52.357Z,6.97
2023-03-29T07:29:23.029Z,8.23
2023-03-29T07:31:50.495Z,7.37
2023-03-29T07:34:42.944Z,8.40
2023-03-29T07:37:17.215Z,6.27
2023-03-29T07:39:45.346Z,5.30
2023-03-29T07:42:38.507Z,8.10
2023-03-29T07:45:08.660Z,6.03
2023-03-29T07:47:44.142Z,6.90
2023-03-29T07:50:11.279Z,8.50
2023-03-29T07:52:38.484Z,5.10
2023-03-29T07:55:07.192Z,5.73
2023-03-29T07:57:51.900Z,6.13
2023-03-29T08:00:20.003Z,5.03
2023-03-29T08:03:03.797Z,5.90
2023-03-29T08:05:40.734Z,4.90
2023-03-29T08:08:14.366Z,4.90
2023-03-29T08:11:10.274Z,5.93
2023-03-29T08:13:54.329Z,4.63
2023-03-29T08:16:27.078Z,8.60
2023-03-29T08:19:03.348Z,6.70
2023-03-29T08:21:46.943Z,4.83
2023-03-29T08:24:14.272Z,7.87
2023-03-29T08:26:45.953Z,5.40
2023-03-29T08:29:15.114Z,8.00
2023-03-29T08:31:43.323Z,4.80
2023-03-29T08:34:09.859Z,4.80
2023-03-29T08:36:48.831Z,3.97
2023-03-29T08:39:24.752Z,6.27
2023-03-29T08:42:29.830Z,5.30
2023-03-29T08:45:02.612Z,5.23
2023-03-29T08:47:53.915Z,6.60
2023-03-29T08:50:24.235Z,4.90
2023-03-29T08:53:34.067Z,5.00
2023-03-29T08:56:12.701Z,6.03
2023-03-29T08:59:17.548Z,4.53
2023-03-29T09:01:47.363Z,4.90
2023-03-29T09:04:23.012Z,5.60
2023-03-29T09:06:55.244Z,8.03
2023-03-29T09:09:32.594Z,6.10
2023-03-29T09:12:11.880Z,5.93
2023-03-29T09:15:15.356Z,4.47
2023-03-29T09:17:59.130Z,4.87
2023-03-29T09:20:50.299Z,5.30
2023-03-29T09:23:32.319Z,6.50
2023-03-29T09:26:25.918Z,6.03
2023-03-29T09:29:33.515Z,5.03
2023-03-29T09:32:03.993Z,6.67
2023-03-29T09:34:42.008Z,8.53
2023-03-29T09:37:37.347Z,5.30
2023-03-29T09:40:11.246Z,6.93
2023-03-29T09:42:52.577Z,6.80
2023-03-29T09:45:19.468Z,5.13
2023-03-29T09:47:53.268Z,6.07
2023-03-29T09:50:34.776Z,5.43
2023-03-29T09:53:05.478Z,4.80
2023-03-29T09:55:37.235Z,6.20
2023-03-29T09:58:13.789Z,6.20
2023-03-29T10:00:44.946Z,7.67
2023-03-29T10:03:24.268Z,6.30
2023-03-29T10:06:05.105Z,4.50
2023-03-29T10:08:44.482Z,4.70
2023-03-29T10:11:22.184Z,6.70
2023-03-29T10:13:53.643Z,5.07
2023-03-29T10:16:24.328Z,4.83
2023-03-29T10:18:51.806Z,5.40
2023-03-29T10:21:22.146Z,7.93
2023-03-29T10:23:49.782Z,7.53
2023-03-29T10:26:27.914Z,5.00
2023-03-29T10:28:57.059Z,5.70
2023-03-29T10:31:24.414Z,6.10
2023-03-29T10:33:56.567Z,4.70
2023-03-29T10:36:25.264Z,5.10
2023-03-29T10:38:53.102Z,5.43
2023-03-29T10:41:21.724Z,6.17
2023-03-29T10:43:51.022Z,4.17
2023-03-29T10:46:32.687Z,4.03
2023-03-29T10:49:04.812Z,6.00
2023-03-29T10:51:32.285Z,4.90
2023-03-29T10:53:59.686Z,5.53
2023-03-29T10:56:43.509Z,4.80
2023-03-29T10:59:25.476Z,4.50
2023-03-29T11:02:05.231Z,4.63
2023-03-29T11:04:52.504Z,4.40
2023-03-29T11:07:29.879Z,4.47
2023-03-29T11:10:28.407Z,3.87
2023-03-29T11:13:16.649Z,6.10
2023-03-29T11:16:10.847Z,4.10
2023-03-29T11:18:56.376Z,4.80
2023-03-29T11:21:39.981Z,4.47
2023-03-29T11:24:25.540Z,4.60
2023-03-29T11:27:00.352Z,5.60
2023-03-29T11:29:52.768Z,5.20
2023-03-29T11:32:34.342Z,5.00
2023-03-29T11:35:12.299Z,5.10
2023-03-29T11:37:44.656Z,5.13
2023-03-29T11:40:29.848Z,7.00
2023-03-29T11:42:58.066Z,5.93
2023-03-29T11:45:30.179Z,7.67
2023-03-29T11:47:59.352Z,6.17
2023-03-29T11:50:30.776Z,5.80
2023-03-29T11:53:08.273Z,5.57
2023-03-29T11:55:39.347Z,5.40
2023-03-29T11:58:18.923Z,7.20
2023-03-29T12:00:48.442Z,6.30
2023-03-29T12:03:36.907Z,5.43
2023-03-29T12:06:11.149Z,6.60
2023-03-29T12:08:58.580Z,5.83
2023-03-29T12:11:41.488Z,8.43
2023-03-29T12:14:15.475Z,4.90
2023-03-29T12:16:45.977Z,6.37
2023-03-29T12:19:22.419Z,5.47
2023-03-29T12:21:49.053Z,7.07
2023-03-29T12:24:19.562Z,5.93
2023-03-29T12:26:58.365Z,8.23
2023-03-29T12:29:34.920Z,7.67
2023-03-29T12:32:46.008Z,7.60
2023-03-29T12:35:44.451Z,4.50
2023-03-29T12:38:48.013Z,6.37
2023-03-29T12:41:48.845Z,5.03
2023-03-29T12:44:34.152Z,4.77
2023-03-29T12:47:20.382Z,6.60
2023-03-29T12:49:47.296Z,6.60
2023-03-29T12:52:31.549Z,6.30
2023-03-29T12:55:00.870Z,7.77
2023-03-29T12:57:39.946Z,7.17
2023-03-29T13:00:26.974Z,5.60
2023-03-29T13:03:04.777Z,5.30
2023-03-29T13:05:36.159Z,6.00
2023-03-29T13:08:22.401Z,5.20
2023-03-29T13:10:56.399Z,6.47
2023-03-29T13:13:32.326Z,6.17
2023-03-29T13:16:16.702Z,5.30
2023-03-29T13:19:02.402Z,4.63
2023-03-29T13:21:50.047Z,5.73
2023-03-29T13:24:55.499Z,6.10
2023-03-29T13:27:37.246Z,5.87
2023-03-29T13:30:32.810Z,7.20
2023-03-29T13:33:09.706Z,7.43
2023-03-29T13:35:38.942Z,6.63
2023-03-29T13:38:15.210Z,7.23
2023-03-29T13:40:53.686Z,7.13
2023-03-29T13:43:23.569Z,7.20
2023-03-29T13:45:58.874Z,5.33
2023-03-29T13:48:29.901Z,7.13
2023-03-29T13:51:10.930Z,6.90
2023-03-29T13:53:41.449Z,5.70
2023-03-29T13:56:11.148Z,7.40
2023-03-29T13:58:46.580Z,8.57
2023-03-29T14:01:43.397Z,7.90
2023-03-29T14:04:15.712Z,5.93
2023-03-29T14:06:43.888Z,6.77
2023-03-29T14:09:12.692Z,7.93
2023-03-29T14:11:44.444Z,5.90
2023-03-29T14:14:11.339Z,7.73
2023-03-29T14:16:39.657Z,8.00
2023-03-29T14:19:13.468Z,8.37
2023-03-29T14:21:41.256Z,7.83
2023-03-29T14:24:12.878Z,6.13
2023-03-29T14:26:44.647Z,8.33
2023-03-29T14:29:12.000Z,4.93
2023-03-29T14:31:40.348Z,7.37
2023-03-29T14:34:15.749Z,8.23
2023-03-29T14:36:46.128Z,6.33
2023-03-29T14:39:17.233Z,8.47
2023-03-29T14:42:02.353Z,6.00
2023-03-29T14:44:31.783Z,6.67
2023-03-29T14:46:59.005Z,7.17
2023-03-29T14:49:26.509Z,7.90
2023-03-29T14:51:54.697Z,6.53
2023-03-29T14:54:24.925Z,7.20
2023-03-29T14:56:52.466Z,6.77
2023-03-29T14:59:38.889Z,6.13
2023-03-29T15:02:22.697Z,7.17
2023-03-29T15:04:59.131Z,5.70
2023-03-29T15:07:27.258Z,6.93
2023-03-29T15:09:54.601Z,4.67
2023-03-29T15:12:21.208Z,6.37
2023-03-29T15:14:50.506Z,9.03
2023-03-29T15:17:51.108Z,8.70
2023-03-29T15:20:23.137Z,5.43
2023-03-29T15:23:15.480Z,4.57
2023-03-29T15:25:58.094Z,5.83
2023-03-29T15:28:33.622Z,5.50
2023-03-29T15:31:10.190Z,6.67
2023-03-29T15:33:38.967Z,8.83
2023-03-29T15:36:07.201Z,7.40
2023-03-29T15:38:43.339Z,4.77
2023-03-29T15:41:13.281Z,5.83
2023-03-29T15:43:40.002Z,4.97
2023-03-29T15:46:06.720Z,6.73
2023-03-29T15:48:33.688Z,6.87
2023-03-29T15:51:05.467Z,6.90
2023-03-29T15:53:33.203Z,4.70
2023-03-29T15:56:01.657Z,5.00
2023-03-29T15:58:31.488Z,6.17
2023-03-29T16:01:13.970Z,5.50
2023-03-29T16:03:41.596Z,6.33
2023-03-29T16:06:12.191Z,7.40
2023-03-29T16:08:38.939Z,7.13
2023-03-29T16:11:06.762Z,6.60
2023-03-29T16:13:33.221Z,9.80
2023-03-29T16:15:59.749Z,6.93
2023-03-29T16:18:26.410Z,6.30
2023-03-29T16:20:52.942Z,7.37
2023-03-29T16:23:19.504Z,9.00
2023-03-29T16:25:46.382Z,7.20
2023-03-29T16:28:12.928Z,6.20
2023-03-29T16:30:39.516Z,8.40
2023-03-29T16:33:08.357Z,6.07
2023-03-29T16:35:38.046Z,6.30
2023-03-29T16:38:04.779Z,7.20
2023-03-29T16:40:31.596Z,7.60
2023-03-29T16:42:58.097Z,9.20
2023-03-29T16:45:24.868Z,6.33
2023-03-29T16:47:51.460Z,7.70
2023-03-29T16:50:19.683Z,7.07
2023-03-29T16:52:48.298Z,8.90
2023-03-29T16:55:15.521Z,6.90
2023-03-29T16:57:42.569Z,7.07
2023-03-29T17:00:16.145Z,7.50
2023-03-29T17:02:43.596Z,8.57
2023-03-29T17:05:11.702Z,9.47
2023-03-29T17:07:39.304Z,7.53
2023-03-29T17:10:11.531Z,8.03
2023-03-29T17:12:38.439Z,8.80
2023-03-29T17:15:07.505Z,7.53
2023-03-29T17:17:34.635Z,10.00
2023-03-29T17:20:01.201Z,8.53
2023-03-29T17:22:27.870Z,8.20
2023-03-29T17:24:54.422Z,10.30
2023-03-29T17:27:21.281Z,7.50
2023-03-29T17:29:47.937Z,9.87
2023-03-29T17:32:14.522Z,8.50
2023-03-29T17:34:41.708Z,8.37
2023-03-29T17:37:09.712Z,6.37
2023-03-29T17:39:37.629Z,8.93
2023-03-29T17:42:05.424Z,8.57
2023-03-29T17:44:33.276Z,6.63
2023-03-29T17:47:01.054Z,7.90
2023-03-29T17:49:27.903Z,7.80
2023-03-29T17:51:54.417Z,9.63
2023-03-29T17:54:21.127Z,9.97
2023-03-29T17:56:47.683Z,9.87
2023-03-29T17:59:14.504Z,10.07
2023-03-29T18:01:41.732Z,12.30
2023-03-29T18:04:08.465Z,12.23
2023-03-29T18:06:35.401Z,11.27
2023-03-29T18:09:01.963Z,8.90
2023-03-29T18:11:29.343Z,9.13
2023-03-29T18:13:58.872Z,10.00
2023-03-29T18:16:25.506Z,9.50
2023-03-29T18:18:52.444Z,12.20
2023-03-29T18:21:19.030Z,10.20
2023-03-29T18:23:47.299Z,9.50
2023-03-29T18:26:15.338Z,10.33
2023-03-29T18:28:42.409Z,13.30
2023-03-29T18:31:09.379Z,10.10
2023-03-29T18:33:36.241Z,11.03
2023-03-29T18:36:10.821Z,10.73
2023-03-29T18:38:40.305Z,11.83
2023-03-29T18:41:08.630Z,14.03
2023-03-29T18:43:36.075Z,10.83
2023-03-29T18:46:03.094Z,11.53
2023-03-29T18:48:30.032Z,9.27
2023-03-29T18:50:57.250Z,9.80
2023-03-29T18:53:24.232Z,10.00
2023-03-29T18:55:50.877Z,10.97
2023-03-29T18:58:17.900Z,14.03
2023-03-29T19:00:44.432Z,10.70
2023-03-29T19:03:11.308Z,10.60
2023-03-29T19:05:39.303Z,10.10
2023-03-29T19:08:07.131Z,11.60
2023-03-29T19:10:40.598Z,8.00
2023-03-29T19:13:07.378Z,10.80
2023-03-29T19:15:34.687Z,8.53
2023-03-29T19:18:01.370Z,8.77
2023-03-29T19:20:29.407Z,11.37
2023-03-29T19:22:56.497Z,10.57
2023-03-29T19:25:23.064Z,11.33
2023-03-29T19:27:50.387Z,10.83
2023-03-29T19:30:18.244Z,10.47
2023-03-29T19:32:45.201Z,11.23
2023-03-29T19:35:13.174Z,11.73
2023-03-29T19:37:40.645Z,11.67
2023-03-29T19:40:11.097Z,12.23
2023-03-29T19:42:38.366Z,10.83
2023-03-29T19:45:06.472Z,12.53
2023-03-29T19:47:33.385Z,21.30
2023-03-29T19:50:00.764Z,10.83
2023-03-29T19:52:28.261Z,11.70
2023-03-29T19:54:55.895Z,14.50
2023-03-29T19:57:23.971Z,16.13
2023-03-29T19:59:53.070Z,13.50
2023-03-29T20:02:19.804Z,11.63
2023-03-29T20:04:46.507Z,14.23
2023-03-29T20:07:13.204Z,13.57
2023-03-29T20:09:39.732Z,17.43
2023-03-29T20:12:06.595Z,13.30
2023-03-29T20:14:34.286Z,14.87
2023-03-29T20:17:00.920Z,15.60
2023-03-29T20:19:27.661Z,12.00
2023-03-29T20:21:58.059Z,12.10
2023-03-29T20:24:24.952Z,10.50
2023-03-29T20:26:51.832Z,12.30
2023-03-29T20:29:18.563Z,11.40
2023-03-29T20:31:45.685Z,11.50
2023-03-29T20:34:12.205Z,12.70
2023-03-29T20:36:40.446Z,11.17
2023-03-29T20:39:08.096Z,16.80
2023-03-29T20:41:38.248Z,10.00
2023-03-29T20:44:05.621Z,13.77
2023-03-29T20:46:35.069Z,13.17
2023-03-29T20:49:02.704Z,12.43
2023-03-29T20:51:30.390Z,13.03
2023-03-29T20:54:04.822Z,13.73
2023-03-29T20:56:34.354Z,11.60
2023-03-29T20:59:01.167Z,11.50
2023-03-29T21:01:29.623Z,11.40
2023-03-29T21:03:56.412Z,12.50
2023-03-29T21:06:24.422Z,12.13
2023-03-29T21:08:52.507Z,15.77
2023-03-29T21:11:20.165Z,12.67
2023-03-29T21:13:47.253Z,16.33
2023-03-29T21:16:14.315Z,16.17
2023-03-29T21:18:41.635Z,14.80
2023-03-29T21:21:10.987Z,16.90
2023-03-29T21:23:38.364Z,12.87
2023-03-29T21:26:07.213Z,14.23
2023-03-29T21:28:33.953Z,17.83
2023-03-29T21:31:05.059Z,13.10
2023-03-29T21:33:32.214Z,16.33
2023-03-29T21:35:58.985Z,13.23
2023-03-29T21:38:25.636Z,13.97
2023-03-29T21:40:52.267Z,17.50
2023-03-29T21:43:19.087Z,16.03
2023-03-29T21:45:49.611Z,14.73
2023-03-29T21:48:17.469Z,14.17
2023-03-29T21:50:44.318Z,13.13
2023-03-29T21:53:12.445Z,11.07
2023-03-29T21:55:38.992Z,12.43
2023-03-29T21:58:05.874Z,12.83
2023-03-29T22:00:32.724Z,14.97
2023-03-29T22:02:59.364Z,15.87
2023-03-29T22:05:26.332Z,13.53
2023-03-29T22:07:53.118Z,13.03
2023-03-29T22:10:23.949Z,16.80
2023-03-29T22:12:51.214Z,14.70
2023-03-29T22:15:21.177Z,14.60
2023-03-29T22:17:48.302Z,12.60
2023-03-29T22:20:15.287Z,14.67
2023-03-29T22:22:46.858Z,13.73
2023-03-29T22:25:13.583Z,13.73
2023-03-29T22:27:40.312Z,15.63
2023-03-29T22:30:08.053Z,15.40
2023-03-29T22:32:34.780Z,16.50
2023-03-29T22:35:01.541Z,13.00
2023-03-29T22:37:28.436Z,13.23
2023-03-29T22:39:55.014Z,18.23
2023-03-29T22:42:21.688Z,14.93
2023-03-29T22:44:48.313Z,14.00
2023-03-29T22:47:15.318Z,15.43
2023-03-29T22:49:41.892Z,12.73
2023-03-29T22:52:08.604Z,16.57
2023-03-29T22:54:35.523Z,15.90
2023-03-29T22:57:02.101Z,15.23
2023-03-29T22:59:28.955Z,13.17
2023-03-29T23:01:55.553Z,14.00
2023-03-29T23:04:22.324Z,12.93
2023-03-29T23:06:48.914Z,15.87
2023-03-29T23:09:16.604Z,15.00
2023-03-29T23:11:43.335Z,15.07
2023-03-29T23:14:09.961Z,15.00
2023-03-29T23:16:37.119Z,17.80
2023-03-29T23:19:04.841Z,15.90
2023-03-29T23:21:31.323Z,13.60
2023-03-29T23:23:58.267Z,15.67
2023-03-29T23:26:24.765Z,18.07
2023-03-29T23:28:51.645Z,15.87
2023-03-29T23:31:18.454Z,18.00
2023-03-29T23:33:45.430Z,20.03
2023-03-29T23:36:14.530Z,16.13
2023-03-29T23:38:42.178Z,14.50
2023-03-29T23:41:10.734Z,16.33
2023-03-29T23:43:40.435Z,15.60
2023-03-29T23:46:10.380Z,13.13
2023-03-29T23:48:37.051Z,15.57
2023-03-29T23:51:04.084Z,16.40
2023-03-29T23:53:31.456Z,17.70
2023-03-29T23:56:02.116Z,14.10
2023-03-29T23:58:29.719Z,14.33
